sensor_id;sensor_type;location;lat;lon;timestamp;P1;durP1;ratioP1;P2;durP2;ratioP2
20828;SDS011;10575;50.124;8.582;2023-11-22T00:01:09;10.52;;;4.80;;
20828;SDS011;10575;50.124;8.582;2023-11-22T00:03:36;7.47;;;4.68;;
20828;SDS011;10575;50.124;8.582;2023-11-22T00:06:01;9.40;;;4.65;;
20828;SDS011;10575;50.124;8.582;2023-11-22T00:08:27;8.93;;;4.40;;
20828;SDS011;10575;50.124;8.582;2023-11-22T00:10:54;5.45;;;4.05;;
20828;SDS011;10575;50.124;8.582;2023-11-22T00:13:19;8.15;;;4.03;;
20828;SDS011;10575;50.124;8.582;2023-11-22T00:15:45;7.50;;;4.10;;
20828;SDS011;10575;50.124;8.582;2023-11-22T00:18:11;7.57;;;3.67;;
20828;SDS011;10575;50.124;8.582;2023-11-22T00:20:36;7.15;;;4.00;;
20828;SDS011;10575;50.124;8.582;2023-11-22T00:23:01;6.45;;;4.20;;
20828;SDS011;10575;50.124;8.582;2023-11-22T00:25:28;8.13;;;4.47;;
20828;SDS011;10575;50.124;8.582;2023-11-22T00:27:53;6.70;;;3.95;;
20828;SDS011;10575;50.124;8.582;2023-11-22T00:30:20;7.97;;;4.60;;
20828;SDS011;10575;50.124;8.582;2023-11-22T00:32:45;7.00;;;4.30;;
20828;SDS011;10575;50.124;8.582;2023-11-22T00:35:11;10.73;;;4.43;;
20828;SDS011;10575;50.124;8.582;2023-11-22T00:37:37;8.18;;;4.70;;
20828;SDS011;10575;50.124;8.582;2023-11-22T00:40:03;7.88;;;4.65;;
20828;SDS011;10575;50.124;8.582;2023-11-22T00:42:36;7.40;;;4.85;;
20828;SDS011;10575;50.124;8.582;2023-11-22T00:45:03;9.88;;;4.18;;
20828;SDS011;10575;50.124;8.582;2023-11-22T00:47:30;9.07;;;4.65;;
20828;SDS011;10575;50.124;8.582;2023-11-22T00:49:59;8.88;;;5.15;;
20828;SDS011;10575;50.124;8.582;2023-11-22T00:52:29;11.10;;;4.85;;
20828;SDS011;10575;50.124;8.582;2023-11-22T00:54:55;9.18;;;5.43;;
20828;SDS011;10575;50.124;8.582;2023-11-22T00:57:21;8.32;;;5.13;;
20828;SDS011;10575;50.124;8.582;2023-11-22T00:59:46;9.20;;;5.10;;
20828;SDS011;10575;50.124;8.582;2023-11-22T01:02:13;10.43;;;5.05;;
20828;SDS011;10575;50.124;8.582;2023-11-22T01:04:38;10.57;;;4.85;;
20828;SDS011;10575;50.124;8.582;2023-11-22T01:07:05;9.25;;;5.38;;
20828;SDS011;10575;50.124;8.582;2023-11-22T01:09:31;8.57;;;4.95;;
20828;SDS011;10575;50.124;8.582;2023-11-22T01:12:00;9.55;;;5.72;;
20828;SDS011;10575;50.124;8.582;2023-11-22T01:14:26;10.23;;;5.78;;
20828;SDS011;10575;50.124;8.582;2023-11-22T01:16:51;9.82;;;5.78;;
20828;SDS011;10575;50.124;8.582;2023-11-22T01:19:17;8.65;;;5.32;;
20828;SDS011;10575;50.124;8.582;2023-11-22T01:21:43;8.77;;;5.40;;
20828;SDS011;10575;50.124;8.582;2023-11-22T01:24:09;9.57;;;5.50;;
20828;SDS011;10575;50.124;8.582;2023-11-22T01:26:34;9.15;;;5.57;;
20828;SDS011;10575;50.124;8.582;2023-11-22T01:29:00;8.23;;;4.90;;
20828;SDS011;10575;50.124;8.582;2023-11-22T01:31:27;8.10;;;5.18;;
20828;SDS011;10575;50.124;8.582;2023-11-22T01:33:53;9.32;;;5.40;;
20828;SDS011;10575;50.124;8.582;2023-11-22T01:36:19;11.90;;;6.07;;
20828;SDS011;10575;50.124;8.582;2023-11-22T01:38:45;11.57;;;5.72;;
20828;SDS011;10575;50.124;8.582;2023-11-22T01:41:11;9.77;;;5.70;;
20828;SDS011;10575;50.124;8.582;2023-11-22T01:43:38;12.65;;;5.38;;
20828;SDS011;10575;50.124;8.582;2023-11-22T01:46:08;11.13;;;5.63;;
20828;SDS011;10575;50.124;8.582;2023-11-22T01:48:35;8.02;;;5.18;;
20828;SDS011;10575;50.124;8.582;2023-11-22T01:51:01;7.80;;;4.82;;
20828;SDS011;10575;50.124;8.582;2023-11-22T01:53:28;10.55;;;5.40;;
20828;SDS011;10575;50.124;8.582;2023-11-22T01:55:54;9.27;;;5.18;;
20828;SDS011;10575;50.124;8.582;2023-11-22T01:58:21;9.40;;;4.97;;
20828;SDS011;10575;50.124;8.582;2023-11-22T02:00:51;10.63;;;5.35;;
20828;SDS011;10575;50.124;8.582;2023-11-22T02:03:17;8.25;;;4.90;;
20828;SDS011;10575;50.124;8.582;2023-11-22T02:05:44;11.90;;;4.60;;
20828;SDS011;10575;50.124;8.582;2023-11-22T02:08:10;8.13;;;4.90;;
20828;SDS011;10575;50.124;8.582;2023-11-22T02:10:36;8.30;;;4.53;;
20828;SDS011;10575;50.124;8.582;2023-11-22T02:13:02;8.18;;;5.25;;
20828;SDS011;10575;50.124;8.582;2023-11-22T02:15:32;9.73;;;4.90;;
20828;SDS011;10575;50.124;8.582;2023-11-22T02:18:03;12.38;;;5.55;;
20828;SDS011;10575;50.124;8.582;2023-11-22T02:20:30;9.82;;;5.35;;
20828;SDS011;10575;50.124;8.582;2023-11-22T02:22:56;9.20;;;4.90;;
20828;SDS011;10575;50.124;8.582;2023-11-22T02:25:22;8.75;;;5.07;;
20828;SDS011;10575;50.124;8.582;2023-11-22T02:27:47;10.20;;;5.57;;
20828;SDS011;10575;50.124;8.582;2023-11-22T02:30:13;8.68;;;4.90;;
20828;SDS011;10575;50.124;8.582;2023-11-22T02:32:38;9.23;;;4.90;;
20828;SDS011;10575;50.124;8.582;2023-11-22T02:35:04;8.13;;;4.45;;
20828;SDS011;10575;50.124;8.582;2023-11-22T02:37:32;6.55;;;4.03;;
20828;SDS011;10575;50.124;8.582;2023-11-22T02:40:04;8.38;;;4.80;;
20828;SDS011;10575;50.124;8.582;2023-11-22T02:42:34;10.68;;;4.80;;
20828;SDS011;10575;50.124;8.582;2023-11-22T02:45:03;7.05;;;4.53;;
20828;SDS011;10575;50.124;8.582;2023-11-22T02:47:30;7.18;;;4.30;;
20828;SDS011;10575;50.124;8.582;2023-11-22T02:49:56;8.63;;;4.57;;
20828;SDS011;10575;50.124;8.582;2023-11-22T02:52:21;8.35;;;4.65;;
20828;SDS011;10575;50.124;8.582;2023-11-22T02:54:49;8.07;;;5.25;;
20828;SDS011;10575;50.124;8.582;2023-11-22T02:57:14;9.55;;;5.20;;
20828;SDS011;10575;50.124;8.582;2023-11-22T02:59:43;8.75;;;5.22;;
20828;SDS011;10575;50.124;8.582;2023-11-22T03:02:09;11.65;;;6.45;;
20828;SDS011;10575;50.124;8.582;2023-11-22T03:04:35;12.32;;;5.50;;
20828;SDS011;10575;50.124;8.582;2023-11-22T03:07:00;9.27;;;5.32;;
20828;SDS011;10575;50.124;8.582;2023-11-22T03:09:26;8.27;;;4.97;;
20828;SDS011;10575;50.124;8.582;2023-11-22T03:11:52;9.40;;;5.05;;
20828;SDS011;10575;50.124;8.582;2023-11-22T03:14:18;10.63;;;5.32;;
20828;SDS011;10575;50.124;8.582;2023-11-22T03:16:44;12.63;;;5.57;;
20828;SDS011;10575;50.124;8.582;2023-11-22T03:19:10;13.07;;;5.65;;
20828;SDS011;10575;50.124;8.582;2023-11-22T03:21:38;11.73;;;5.75;;
20828;SDS011;10575;50.124;8.582;2023-11-22T03:24:04;10.10;;;5.25;;
20828;SDS011;10575;50.124;8.582;2023-11-22T03:26:30;11.77;;;5.65;;
20828;SDS011;10575;50.124;8.582;2023-11-22T03:28:55;11.18;;;5.72;;
20828;SDS011;10575;50.124;8.582;2023-11-22T03:31:21;10.35;;;5.28;;
20828;SDS011;10575;50.124;8.582;2023-11-22T03:33:48;8.23;;;4.50;;
20828;SDS011;10575;50.124;8.582;2023-11-22T03:36:15;10.82;;;5.10;;
20828;SDS011;10575;50.124;8.582;2023-11-22T03:38:41;8.77;;;4.90;;
20828;SDS011;10575;50.124;8.582;2023-11-22T03:41:06;9.27;;;4.88;;
20828;SDS011;10575;50.124;8.582;2023-11-22T03:43:32;19.08;;;4.97;;
20828;SDS011;10575;50.124;8.582;2023-11-22T03:45:57;7.75;;;4.38;;
20828;SDS011;10575;50.124;8.582;2023-11-22T03:48:23;11.25;;;4.85;;
20828;SDS011;10575;50.124;8.582;2023-11-22T03:50:50;10.95;;;4.95;;
20828;SDS011;10575;50.124;8.582;2023-11-22T03:53:16;8.70;;;4.25;;
20828;SDS011;10575;50.124;8.582;2023-11-22T03:55:42;9.43;;;4.50;;
20828;SDS011;10575;50.124;8.582;2023-11-22T03:58:07;8.65;;;4.72;;
20828;SDS011;10575;50.124;8.582;2023-11-22T04:00:33;7.00;;;4.45;;
20828;SDS011;10575;50.124;8.582;2023-11-22T04:02:58;11.90;;;5.43;;
20828;SDS011;10575;50.124;8.582;2023-11-22T04:05:26;8.45;;;4.53;;
20828;SDS011;10575;50.124;8.582;2023-11-22T04:07:52;8.32;;;4.63;;
20828;SDS011;10575;50.124;8.582;2023-11-22T04:10:18;14.20;;;5.53;;
20828;SDS011;10575;50.124;8.582;2023-11-22T04:12:44;9.50;;;5.20;;
20828;SDS011;10575;50.124;8.582;2023-11-22T04:15:10;8.13;;;4.53;;
20828;SDS011;10575;50.124;8.582;2023-11-22T04:17:36;8.20;;;4.72;;
20828;SDS011;10575;50.124;8.582;2023-11-22T04:20:03;9.85;;;4.88;;
20828;SDS011;10575;50.124;8.582;2023-11-22T04:22:34;7.78;;;4.45;;
20828;SDS011;10575;50.124;8.582;2023-11-22T04:24:59;9.30;;;4.80;;
20828;SDS011;10575;50.124;8.582;2023-11-22T04:27:26;7.72;;;4.75;;
20828;SDS011;10575;50.124;8.582;2023-11-22T04:29:51;8.07;;;4.32;;
20828;SDS011;10575;50.124;8.582;2023-11-22T04:32:17;8.40;;;5.07;;
20828;SDS011;10575;50.124;8.582;2023-11-22T04:34:42;7.72;;;4.03;;
20828;SDS011;10575;50.124;8.582;2023-11-22T04:37:08;6.57;;;4.43;;
20828;SDS011;10575;50.124;8.582;2023-11-22T04:39:33;7.20;;;3.80;;
20828;SDS011;10575;50.124;8.582;2023-11-22T04:41:59;8.98;;;5.10;;
20828;SDS011;10575;50.124;8.582;2023-11-22T04:44:25;9.48;;;4.50;;
20828;SDS011;10575;50.124;8.582;2023-11-22T04:46:51;11.38;;;4.63;;
20828;SDS011;10575;50.124;8.582;2023-11-22T04:49:16;6.80;;;4.28;;
20828;SDS011;10575;50.124;8.582;2023-11-22T04:51:42;8.43;;;4.43;;
20828;SDS011;10575;50.124;8.582;2023-11-22T04:54:09;7.65;;;3.45;;
20828;SDS011;10575;50.124;8.582;2023-11-22T04:56:34;8.70;;;4.22;;
20828;SDS011;10575;50.124;8.582;2023-11-22T04:59:00;10.88;;;4.40;;
20828;SDS011;10575;50.124;8.582;2023-11-22T05:01:31;7.97;;;4.40;;
20828;SDS011;10575;50.124;8.582;2023-11-22T05:03:59;9.93;;;4.75;;
20828;SDS011;10575;50.124;8.582;2023-11-22T05:06:24;8.00;;;4.35;;
20828;SDS011;10575;50.124;8.582;2023-11-22T05:08:52;8.80;;;4.80;;
20828;SDS011;10575;50.124;8.582;2023-11-22T05:11:18;8.77;;;4.95;;
20828;SDS011;10575;50.124;8.582;2023-11-22T05:13:44;9.18;;;4.50;;
20828;SDS011;10575;50.124;8.582;2023-11-22T05:16:09;12.25;;;5.72;;
20828;SDS011;10575;50.124;8.582;2023-11-22T05:18:35;7.80;;;4.55;;
20828;SDS011;10575;50.124;8.582;2023-11-22T05:21:00;9.27;;;4.88;;
20828;SDS011;10575;50.124;8.582;2023-11-22T05:23:28;11.25;;;4.93;;
20828;SDS011;10575;50.124;8.582;2023-11-22T05:25:54;13.10;;;5.07;;
20828;SDS011;10575;50.124;8.582;2023-11-22T05:28:21;12.55;;;4.95;;
20828;SDS011;10575;50.124;8.582;2023-11-22T05:30:47;11.35;;;4.72;;
20828;SDS011;10575;50.124;8.582;2023-11-22T05:33:13;10.32;;;4.72;;
20828;SDS011;10575;50.124;8.582;2023-11-22T05:35:38;8.15;;;5.03;;
20828;SDS011;10575;50.124;8.582;2023-11-22T05:38:04;8.90;;;5.07;;
20828;SDS011;10575;50.124;8.582;2023-11-22T05:40:30;13.52;;;4.82;;
20828;SDS011;10575;50.124;8.582;2023-11-22T05:42:55;9.90;;;4.93;;
20828;SDS011;10575;50.124;8.582;2023-11-22T05:45:21;11.20;;;5.30;;
20828;SDS011;10575;50.124;8.582;2023-11-22T05:47:46;8.27;;;4.95;;
20828;SDS011;10575;50.124;8.582;2023-11-22T05:50:12;12.32;;;5.28;;
20828;SDS011;10575;50.124;8.582;2023-11-22T05:52:37;9.55;;;5.00;;
20828;SDS011;10575;50.124;8.582;2023-11-22T05:55:04;11.15;;;5.47;;
20828;SDS011;10575;50.124;8.582;2023-11-22T05:57:30;10.23;;;5.68;;
20828;SDS011;10575;50.124;8.582;2023-11-22T05:59:56;10.00;;;5.05;;
20828;SDS011;10575;50.124;8.582;2023-11-22T06:02:22;10.70;;;5.18;;
20828;SDS011;10575;50.124;8.582;2023-11-22T06:04:47;13.70;;;5.60;;
20828;SDS011;10575;50.124;8.582;2023-11-22T06:07:13;11.05;;;5.05;;
20828;SDS011;10575;50.124;8.582;2023-11-22T06:09:38;12.40;;;4.97;;
20828;SDS011;10575;50.124;8.582;2023-11-22T06:12:05;10.05;;;4.90;;
20828;SDS011;10575;50.124;8.582;2023-11-22T06:14:30;10.25;;;4.97;;
20828;SDS011;10575;50.124;8.582;2023-11-22T06:16:58;13.05;;;4.93;;
20828;SDS011;10575;50.124;8.582;2023-11-22T06:19:24;14.10;;;5.05;;
20828;SDS011;10575;50.124;8.582;2023-11-22T06:21:49;9.18;;;4.68;;
20828;SDS011;10575;50.124;8.582;2023-11-22T06:24:17;8.05;;;4.63;;
20828;SDS011;10575;50.124;8.582;2023-11-22T06:26:45;18.23;;;6.65;;
20828;SDS011;10575;50.124;8.582;2023-11-22T06:29:13;14.50;;;5.55;;
20828;SDS011;10575;50.124;8.582;2023-11-22T06:31:39;10.55;;;5.47;;
20828;SDS011;10575;50.124;8.582;2023-11-22T06:34:05;8.85;;;4.85;;
20828;SDS011;10575;50.124;8.582;2023-11-22T06:36:30;9.70;;;4.95;;
20828;SDS011;10575;50.124;8.582;2023-11-22T06:38:56;7.45;;;4.07;;
20828;SDS011;10575;50.124;8.582;2023-11-22T06:41:21;9.32;;;4.90;;
20828;SDS011;10575;50.124;8.582;2023-11-22T06:43:47;8.85;;;4.25;;
20828;SDS011;10575;50.124;8.582;2023-11-22T06:46:13;8.82;;;4.97;;
20828;SDS011;10575;50.124;8.582;2023-11-22T06:48:41;10.48;;;4.32;;
20828;SDS011;10575;50.124;8.582;2023-11-22T06:51:09;8.43;;;4.50;;
20828;SDS011;10575;50.124;8.582;2023-11-22T06:53:35;9.05;;;4.50;;
20828;SDS011;10575;50.124;8.582;2023-11-22T06:56:00;9.70;;;4.72;;
20828;SDS011;10575;50.124;8.582;2023-11-22T06:58:26;10.48;;;5.10;;
20828;SDS011;10575;50.124;8.582;2023-11-22T07:00:52;8.77;;;4.53;;
20828;SDS011;10575;50.124;8.582;2023-11-22T07:03:18;9.52;;;4.78;;
20828;SDS011;10575;50.124;8.582;2023-11-22T07:05:43;9.68;;;4.93;;
20828;SDS011;10575;50.124;8.582;2023-11-22T07:08:09;9.65;;;5.25;;
20828;SDS011;10575;50.124;8.582;2023-11-22T07:10:36;11.93;;;5.15;;
20828;SDS011;10575;50.124;8.582;2023-11-22T07:13:01;9.85;;;4.30;;
20828;SDS011;10575;50.124;8.582;2023-11-22T07:15:27;10.48;;;4.53;;
20828;SDS011;10575;50.124;8.582;2023-11-22T07:17:53;7.28;;;4.13;;
20828;SDS011;10575;50.124;8.582;2023-11-22T07:20:19;8.88;;;5.03;;
20828;SDS011;10575;50.124;8.582;2023-11-22T07:22:45;8.90;;;4.93;;
20828;SDS011;10575;50.124;8.582;2023-11-22T07:25:11;11.30;;;4.45;;
20828;SDS011;10575;50.124;8.582;2023-11-22T07:27:44;11.23;;;5.18;;
20828;SDS011;10575;50.124;8.582;2023-11-22T07:30:11;11.07;;;4.50;;
20828;SDS011;10575;50.124;8.582;2023-11-22T07:32:38;10.63;;;4.80;;
20828;SDS011;10575;50.124;8.582;2023-11-22T07:35:05;6.82;;;4.15;;
20828;SDS011;10575;50.124;8.582;2023-11-22T07:37:33;8.82;;;4.65;;
20828;SDS011;10575;50.124;8.582;2023-11-22T07:40:00;8.38;;;4.32;;
20828;SDS011;10575;50.124;8.582;2023-11-22T07:42:28;7.72;;;4.18;;
20828;SDS011;10575;50.124;8.582;2023-11-22T07:44:54;9.98;;;4.93;;
20828;SDS011;10575;50.124;8.582;2023-11-22T07:47:21;11.60;;;4.00;;
20828;SDS011;10575;50.124;8.582;2023-11-22T07:49:47;9.38;;;4.78;;
20828;SDS011;10575;50.124;8.582;2023-11-22T07:52:13;8.95;;;4.07;;
20828;SDS011;10575;50.124;8.582;2023-11-22T07:54:39;9.52;;;4.43;;
20828;SDS011;10575;50.124;8.582;2023-11-22T07:57:05;7.43;;;4.00;;
20828;SDS011;10575;50.124;8.582;2023-11-22T07:59:32;7.30;;;3.97;;
20828;SDS011;10575;50.124;8.582;2023-11-22T08:01:58;9.32;;;4.25;;
20828;SDS011;10575;50.124;8.582;2023-11-22T08:04:26;9.30;;;4.40;;
20828;SDS011;10575;50.124;8.582;2023-11-22T08:06:57;8.82;;;4.10;;
20828;SDS011;10575;50.124;8.582;2023-11-22T08:09:23;9.20;;;4.10;;
20828;SDS011;10575;50.124;8.582;2023-11-22T08:11:48;10.60;;;4.43;;
20828;SDS011;10575;50.124;8.582;2023-11-22T08:14:14;7.78;;;4.07;;
20828;SDS011;10575;50.124;8.582;2023-11-22T08:16:40;9.23;;;4.03;;
20828;SDS011;10575;50.124;8.582;2023-11-22T08:19:07;12.27;;;5.30;;
20828;SDS011;10575;50.124;8.582;2023-11-22T08:21:33;8.35;;;4.38;;
20828;SDS011;10575;50.124;8.582;2023-11-22T08:23:59;8.70;;;4.10;;
20828;SDS011;10575;50.124;8.582;2023-11-22T08:26:25;10.55;;;4.20;;
20828;SDS011;10575;50.124;8.582;2023-11-22T08:28:51;15.30;;;4.22;;
20828;SDS011;10575;50.124;8.582;2023-11-22T08:31:16;8.15;;;3.92;;
20828;SDS011;10575;50.124;8.582;2023-11-22T08:33:42;7.68;;;3.42;;
20828;SDS011;10575;50.124;8.582;2023-11-22T08:36:08;10.93;;;4.22;;
20828;SDS011;10575;50.124;8.582;2023-11-22T08:38:37;7.10;;;3.80;;
20828;SDS011;10575;50.124;8.582;2023-11-22T08:41:06;6.88;;;3.80;;
20828;SDS011;10575;50.124;8.582;2023-11-22T08:43:32;7.40;;;4.05;;
20828;SDS011;10575;50.124;8.582;2023-11-22T08:45:59;8.15;;;4.38;;
20828;SDS011;10575;50.124;8.582;2023-11-22T08:48:25;8.73;;;4.07;;
20828;SDS011;10575;50.124;8.582;2023-11-22T08:50:51;7.78;;;4.60;;
20828;SDS011;10575;50.124;8.582;2023-11-22T08:53:18;8.57;;;3.78;;
20828;SDS011;10575;50.124;8.582;2023-11-22T08:55:44;9.30;;;5.10;;
20828;SDS011;10575;50.124;8.582;2023-11-22T08:58:10;8.45;;;3.78;;
20828;SDS011;10575;50.124;8.582;2023-11-22T09:00:36;7.03;;;3.78;;
20828;SDS011;10575;50.124;8.582;2023-11-22T09:03:03;6.60;;;3.97;;
20828;SDS011;10575;50.124;8.582;2023-11-22T09:05:28;8.85;;;3.97;;
20828;SDS011;10575;50.124;8.582;2023-11-22T09:07:54;6.95;;;4.35;;
20828;SDS011;10575;50.124;8.582;2023-11-22T09:10:24;9.70;;;5.25;;
20828;SDS011;10575;50.124;8.582;2023-11-22T09:12:49;7.78;;;4.38;;
20828;SDS011;10575;50.124;8.582;2023-11-22T09:15:19;8.00;;;4.10;;
20828;SDS011;10575;50.124;8.582;2023-11-22T09:17:51;9.30;;;3.97;;
20828;SDS011;10575;50.124;8.582;2023-11-22T09:20:19;9.55;;;4.18;;
20828;SDS011;10575;50.124;8.582;2023-11-22T09:22:46;7.72;;;3.83;;
20828;SDS011;10575;50.124;8.582;2023-11-22T09:25:16;7.05;;;4.20;;
20828;SDS011;10575;50.124;8.582;2023-11-22T09:27:44;12.20;;;3.80;;
20828;SDS011;10575;50.124;8.582;2023-11-22T09:30:14;7.45;;;3.85;;
20828;SDS011;10575;50.124;8.582;2023-11-22T09:32:48;10.98;;;4.70;;
20828;SDS011;10575;50.124;8.582;2023-11-22T09:35:14;6.15;;;3.80;;
20828;SDS011;10575;50.124;8.582;2023-11-22T09:37:40;6.00;;;3.60;;
20828;SDS011;10575;50.124;8.582;2023-11-22T09:40:10;8.45;;;3.63;;
20828;SDS011;10575;50.124;8.582;2023-11-22T09:42:37;10.52;;;4.47;;
20828;SDS011;10575;50.124;8.582;2023-11-22T09:45:02;6.20;;;3.65;;
20828;SDS011;10575;50.124;8.582;2023-11-22T09:47:29;7.65;;;3.65;;
20828;SDS011;10575;50.124;8.582;2023-11-22T09:49:59;8.57;;;4.03;;
20828;SDS011;10575;50.124;8.582;2023-11-22T09:52:30;7.00;;;4.07;;
20828;SDS011;10575;50.124;8.582;2023-11-22T09:54:58;7.63;;;3.92;;
20828;SDS011;10575;50.124;8.582;2023-11-22T09:57:25;6.70;;;3.88;;
20828;SDS011;10575;50.124;8.582;2023-11-22T09:59:54;6.57;;;4.07;;
20828;SDS011;10575;50.124;8.582;2023-11-22T10:02:22;10.35;;;4.35;;
20828;SDS011;10575;50.124;8.582;2023-11-22T10:04:52;9.65;;;3.78;;
20828;SDS011;10575;50.124;8.582;2023-11-22T10:07:18;7.60;;;3.83;;
20828;SDS011;10575;50.124;8.582;2023-11-22T10:09:44;6.10;;;3.63;;
20828;SDS011;10575;50.124;8.582;2023-11-22T10:12:11;8.40;;;4.45;;
20828;SDS011;10575;50.124;8.582;2023-11-22T10:14:37;7.70;;;3.58;;
20828;SDS011;10575;50.124;8.582;2023-11-22T10:17:03;10.77;;;4.38;;
20828;SDS011;10575;50.124;8.582;2023-11-22T10:19:30;6.07;;;3.97;;
20828;SDS011;10575;50.124;8.582;2023-11-22T10:22:03;8.50;;;4.15;;
20828;SDS011;10575;50.124;8.582;2023-11-22T10:24:32;8.68;;;4.32;;
20828;SDS011;10575;50.124;8.582;2023-11-22T10:27:01;6.65;;;3.70;;
20828;SDS011;10575;50.124;8.582;2023-11-22T10:29:28;7.35;;;3.88;;
20828;SDS011;10575;50.124;8.582;2023-11-22T10:31:54;7.70;;;4.25;;
20828;SDS011;10575;50.124;8.582;2023-11-22T10:34:23;8.35;;;4.47;;
20828;SDS011;10575;50.124;8.582;2023-11-22T10:36:49;6.93;;;4.18;;
20828;SDS011;10575;50.124;8.582;2023-11-22T10:39:18;7.40;;;3.97;;
20828;SDS011;10575;50.124;8.582;2023-11-22T10:41:45;7.57;;;3.58;;
20828;SDS011;10575;50.124;8.582;2023-11-22T10:44:11;10.45;;;4.13;;
20828;SDS011;10575;50.124;8.582;2023-11-22T10:46:37;8.18;;;4.05;;
20828;SDS011;10575;50.124;8.582;2023-11-22T10:49:04;8.48;;;4.35;;
20828;SDS011;10575;50.124;8.582;2023-11-22T10:51:31;9.85;;;4.32;;
20828;SDS011;10575;50.124;8.582;2023-11-22T10:53:57;6.53;;;3.88;;
20828;SDS011;10575;50.124;8.582;2023-11-22T10:56:25;7.00;;;3.70;;
20828;SDS011;10575;50.124;8.582;2023-11-22T10:58:56;8.43;;;3.80;;
20828;SDS011;10575;50.124;8.582;2023-11-22T11:01:25;7.22;;;3.97;;
20828;SDS011;10575;50.124;8.582;2023-11-22T11:06:26;5.88;;;3.70;;
20828;SDS011;10575;50.124;8.582;2023-11-22T11:08:56;6.32;;;3.55;;
20828;SDS011;10575;50.124;8.582;2023-11-22T11:11:24;7.47;;;4.47;;
20828;SDS011;10575;50.124;8.582;2023-11-22T11:13:52;6.13;;;3.63;;
20828;SDS011;10575;50.124;8.582;2023-11-22T11:16:18;6.63;;;3.85;;
20828;SDS011;10575;50.124;8.582;2023-11-22T11:18:45;6.93;;;4.05;;
20828;SDS011;10575;50.124;8.582;2023-11-22T11:21:11;6.72;;;4.10;;
20828;SDS011;10575;50.124;8.582;2023-11-22T11:23:38;7.53;;;3.78;;
20828;SDS011;10575;50.124;8.582;2023-11-22T11:26:20;7.78;;;4.03;;
20828;SDS011;10575;50.124;8.582;2023-11-22T11:28:49;6.50;;;3.80;;
20828;SDS011;10575;50.124;8.582;2023-11-22T11:31:16;7.28;;;4.50;;
20828;SDS011;10575;50.124;8.582;2023-11-22T11:36:32;6.18;;;3.97;;
20828;SDS011;10575;50.124;8.582;2023-11-22T11:38:58;8.13;;;4.03;;
20828;SDS011;10575;50.124;8.582;2023-11-22T11:41:26;9.52;;;4.18;;
20828;SDS011;10575;50.124;8.582;2023-11-22T11:44:03;9.38;;;4.70;;
20828;SDS011;10575;50.124;8.582;2023-11-22T11:46:32;8.10;;;4.95;;
20828;SDS011;10575;50.124;8.582;2023-11-22T11:48:58;7.00;;;4.05;;
20828;SDS011;10575;50.124;8.582;2023-11-22T11:51:27;5.80;;;3.45;;
20828;SDS011;10575;50.124;8.582;2023-11-22T11:53:54;6.55;;;3.83;;
20828;SDS011;10575;50.124;8.582;2023-11-22T11:56:20;7.38;;;3.85;;
20828;SDS011;10575;50.124;8.582;2023-11-22T11:58:47;7.68;;;4.45;;
20828;SDS011;10575;50.124;8.582;2023-11-22T12:01:17;6.38;;;3.72;;
20828;SDS011;10575;50.124;8.582;2023-11-22T12:03:46;9.40;;;4.43;;
20828;SDS011;10575;50.124;8.582;2023-11-22T12:06:16;9.50;;;5.43;;
20828;SDS011;10575;50.124;8.582;2023-11-22T12:08:45;9.82;;;5.72;;
20828;SDS011;10575;50.124;8.582;2023-11-22T12:11:12;8.70;;;4.43;;
20828;SDS011;10575;50.124;8.582;2023-11-22T12:13:39;9.68;;;3.90;;
20828;SDS011;10575;50.124;8.582;2023-11-22T12:16:08;9.77;;;4.13;;
20828;SDS011;10575;50.124;8.582;2023-11-22T12:18:42;10.68;;;5.60;;
20828;SDS011;10575;50.124;8.582;2023-11-22T12:21:12;8.10;;;4.18;;
20828;SDS011;10575;50.124;8.582;2023-11-22T12:23:39;6.10;;;3.85;;
20828;SDS011;10575;50.124;8.582;2023-11-22T12:26:09;7.70;;;3.72;;
20828;SDS011;10575;50.124;8.582;2023-11-22T12:28:39;7.53;;;4.03;;
20828;SDS011;10575;50.124;8.582;2023-11-22T12:31:12;6.80;;;4.03;;
20828;SDS011;10575;50.124;8.582;2023-11-22T12:33:42;6.28;;;4.00;;
20828;SDS011;10575;50.124;8.582;2023-11-22T12:36:09;8.32;;;3.78;;
20828;SDS011;10575;50.124;8.582;2023-11-22T12:38:36;6.95;;;3.75;;
20828;SDS011;10575;50.124;8.582;2023-11-22T12:41:02;6.68;;;3.85;;
20828;SDS011;10575;50.124;8.582;2023-11-22T12:43:28;6.75;;;4.15;;
20828;SDS011;10575;50.124;8.582;2023-11-22T12:46:00;8.80;;;4.00;;
20828;SDS011;10575;50.124;8.582;2023-11-22T12:48:27;7.05;;;4.15;;
20828;SDS011;10575;50.124;8.582;2023-11-22T12:50:55;7.50;;;4.18;;
20828;SDS011;10575;50.124;8.582;2023-11-22T12:53:21;8.05;;;4.38;;
20828;SDS011;10575;50.124;8.582;2023-11-22T12:55:47;6.75;;;4.07;;
20828;SDS011;10575;50.124;8.582;2023-11-22T12:58:17;10.02;;;3.97;;
20828;SDS011;10575;50.124;8.582;2023-11-22T13:00:48;7.50;;;3.90;;
20828;SDS011;10575;50.124;8.582;2023-11-22T13:03:14;11.93;;;3.92;;
20828;SDS011;10575;50.124;8.582;2023-11-22T13:05:41;7.03;;;3.88;;
20828;SDS011;10575;50.124;8.582;2023-11-22T13:08:11;10.15;;;4.20;;
20828;SDS011;10575;50.124;8.582;2023-11-22T13:10:43;7.57;;;4.13;;
20828;SDS011;10575;50.124;8.582;2023-11-22T13:13:09;8.25;;;4.45;;
20828;SDS011;10575;50.124;8.582;2023-11-22T13:15:35;6.57;;;3.72;;
20828;SDS011;10575;50.124;8.582;2023-11-22T13:18:00;7.90;;;4.70;;
20828;SDS011;10575;50.124;8.582;2023-11-22T13:20:26;8.23;;;3.88;;
20828;SDS011;10575;50.124;8.582;2023-11-22T13:22:53;12.23;;;4.63;;
20828;SDS011;10575;50.124;8.582;2023-11-22T13:25:19;7.30;;;4.45;;
20828;SDS011;10575;50.124;8.582;2023-11-22T13:27:48;7.53;;;4.40;;
20828;SDS011;10575;50.124;8.582;2023-11-22T13:30:15;6.45;;;4.00;;
20828;SDS011;10575;50.124;8.582;2023-11-22T13:32:44;6.75;;;3.85;;
20828;SDS011;10575;50.124;8.582;2023-11-22T13:35:09;8.07;;;4.13;;
20828;SDS011;10575;50.124;8.582;2023-11-22T13:37:45;8.45;;;3.83;;
20828;SDS011;10575;50.124;8.582;2023-11-22T13:40:16;6.90;;;4.22;;
20828;SDS011;10575;50.124;8.582;2023-11-22T13:42:46;9.68;;;4.55;;
20828;SDS011;10575;50.124;8.582;2023-11-22T13:45:14;8.38;;;4.50;;
20828;SDS011;10575;50.124;8.582;2023-11-22T13:50:18;7.20;;;4.18;;
20828;SDS011;10575;50.124;8.582;2023-11-22T13:52:46;11.55;;;4.65;;
20828;SDS011;10575;50.124;8.582;2023-11-22T13:55:13;13.25;;;4.80;;
20828;SDS011;10575;50.124;8.582;2023-11-22T13:57:39;19.10;;;6.63;;
20828;SDS011;10575;50.124;8.582;2023-11-22T14:00:06;8.50;;;3.83;;
20828;SDS011;10575;50.124;8.582;2023-11-22T14:02:38;10.68;;;4.43;;
20828;SDS011;10575;50.124;8.582;2023-11-22T14:05:07;8.43;;;4.32;;
20828;SDS011;10575;50.124;8.582;2023-11-22T14:07:35;11.13;;;4.30;;
20828;SDS011;10575;50.124;8.582;2023-11-22T14:10:01;10.13;;;4.80;;
20828;SDS011;10575;50.124;8.582;2023-11-22T14:12:28;14.85;;;4.55;;
20828;SDS011;10575;50.124;8.582;2023-11-22T14:14:55;8.80;;;3.92;;
20828;SDS011;10575;50.124;8.582;2023-11-22T14:17:20;11.18;;;4.50;;
20828;SDS011;10575;50.124;8.582;2023-11-22T14:19:46;7.18;;;4.03;;
20828;SDS011;10575;50.124;8.582;2023-11-22T14:22:12;7.22;;;4.15;;
20828;SDS011;10575;50.124;8.582;2023-11-22T14:24:39;14.48;;;4.63;;
20828;SDS011;10575;50.124;8.582;2023-11-22T14:27:04;11.88;;;4.13;;
20828;SDS011;10575;50.124;8.582;2023-11-22T14:29:30;11.82;;;4.15;;
20828;SDS011;10575;50.124;8.582;2023-11-22T14:31:56;8.20;;;4.15;;
20828;SDS011;10575;50.124;8.582;2023-11-22T14:34:22;8.27;;;3.88;;
20828;SDS011;10575;50.124;8.582;2023-11-22T14:36:47;15.02;;;4.30;;
20828;SDS011;10575;50.124;8.582;2023-11-22T14:39:12;10.57;;;4.25;;
20828;SDS011;10575;50.124;8.582;2023-11-22T14:41:39;14.00;;;3.97;;
20828;SDS011;10575;50.124;8.582;2023-11-22T14:44:05;8.13;;;4.93;;
20828;SDS011;10575;50.124;8.582;2023-11-22T14:46:31;9.30;;;4.45;;
20828;SDS011;10575;50.124;8.582;2023-11-22T14:48:57;14.77;;;6.10;;